sensor_id;sensor_type;location;lat;lon;timestamp;temperature;humidity
28247;DHT22;34504;53.178;22.058;2022-09-13T00:01:17;10.30;99.90
28247;DHT22;34504;53.178;22.058;2022-09-13T00:03:45;10.40;99.90
28247;DHT22;34504;53.178;22.058;2022-09-13T00:06:17;10.40;99.90
28247;DHT22;34504;53.178;22.058;2022-09-13T00:08:46;10.40;99.90
28247;DHT22;34504;53.178;22.058;2022-09-13T00:11:33;10.40;99.90
28247;DHT22;34504;53.178;22.058;2022-09-13T00:14:01;10.40;99.90
28247;DHT22;34504;53.178;22.058;2022-09-13T00:16:30;10.30;99.90
28247;DHT22;34504;53.178;22.058;2022-09-13T00:18:58;10.40;99.90
28247;DHT22;34504;53.178;22.058;2022-09-13T00:21:27;10.40;99.90
28247;DHT22;34504;53.178;22.058;2022-09-13T00:23:58;10.50;99.90
28247;DHT22;34504;53.178;22.058;2022-09-13T00:26:26;10.50;99.90
28247;DHT22;34504;53.178;22.058;2022-09-13T00:28:56;10.50;99.90
28247;DHT22;34504;53.178;22.058;2022-09-13T00:31:26;10.50;99.90
28247;DHT22;34504;53.178;22.058;2022-09-13T00:33:57;10.50;99.90
28247;DHT22;34504;53.178;22.058;2022-09-13T00:36:25;10.50;99.90
28247;DHT22;34504;53.178;22.058;2022-09-13T00:38:53;10.60;99.90
28247;DHT22;34504;53.178;22.058;2022-09-13T00:41:22;10.60;99.90
28247;DHT22;34504;53.178;22.058;2022-09-13T00:46:37;10.60;99.90
28247;DHT22;34504;53.178;22.058;2022-09-13T00:52:04;10.70;99.90
28247;DHT22;34504;53.178;22.058;2022-09-13T00:54:45;10.70;99.90
28247;DHT22;34504;53.178;22.058;2022-09-13T00:57:16;10.70;99.90
28247;DHT22;34504;53.178;22.058;2022-09-13T01:02:26;10.80;99.90
28247;DHT22;34504;53.178;22.058;2022-09-13T01:04:55;10.70;99.90
28247;DHT22;34504;53.178;22.058;2022-09-13T01:07:23;10.70;99.90
28247;DHT22;34504;53.178;22.058;2022-09-13T01:09:51;10.80;99.90
28247;DHT22;34504;53.178;22.058;2022-09-13T01:12:51;10.80;99.90
28247;DHT22;34504;53.178;22.058;2022-09-13T01:15:20;10.80;99.90
28247;DHT22;34504;53.178;22.058;2022-09-13T01:17:50;10.80;99.90
28247;DHT22;34504;53.178;22.058;2022-09-13T01:20:21;10.80;99.90
28247;DHT22;34504;53.178;22.058;2022-09-13T01:29:07;10.80;99.90
28247;DHT22;34504;53.178;22.058;2022-09-13T01:42:56;10.80;99.90
28247;DHT22;34504;53.178;22.058;2022-09-13T01:45:52;10.80;99.90
28247;DHT22;34504;53.178;22.058;2022-09-13T01:57:08;10.80;99.90
28247;DHT22;34504;53.178;22.058;2022-09-13T02:02:09;10.80;99.90
28247;DHT22;34504;53.178;22.058;2022-09-13T02:04:46;10.90;99.90
28247;DHT22;34504;53.178;22.058;2022-09-13T02:07:19;10.90;99.90
28247;DHT22;34504;53.178;22.058;2022-09-13T02:09:53;10.90;99.90
28247;DHT22;34504;53.178;22.058;2022-09-13T02:12:25;10.90;99.90
28247;DHT22;34504;53.178;22.058;2022-09-13T02:15:52;10.90;99.90
28247;DHT22;34504;53.178;22.058;2022-09-13T02:18:23;10.90;99.90
28247;DHT22;34504;53.178;22.058;2022-09-13T02:21:00;10.90;99.90
28247;DHT22;34504;53.178;22.058;2022-09-13T02:23:33;10.90;99.90
28247;DHT22;34504;53.178;22.058;2022-09-13T02:26:04;10.90;99.90
28247;DHT22;34504;53.178;22.058;2022-09-13T02:28:41;10.90;99.90
28247;DHT22;34504;53.178;22.058;2022-09-13T02:31:11;10.90;99.90
28247;DHT22;34504;53.178;22.058;2022-09-13T02:33:46;10.90;99.90
28247;DHT22;34504;53.178;22.058;2022-09-13T02:36:23;10.90;99.90
28247;DHT22;34504;53.178;22.058;2022-09-13T02:38:58;10.90;99.90
28247;DHT22;34504;53.178;22.058;2022-09-13T02:41:35;10.90;99.90
28247;DHT22;34504;53.178;22.058;2022-09-13T02:44:14;10.90;99.90
28247;DHT22;34504;53.178;22.058;2022-09-13T02:49:52;10.80;99.90
28247;DHT22;34504;53.178;22.058;2022-09-13T02:58:29;10.80;99.90
28247;DHT22;34504;53.178;22.058;2022-09-13T03:01:02;10.70;99.90
28247;DHT22;34504;53.178;22.058;2022-09-13T03:03:30;10.70;99.90
28247;DHT22;34504;53.178;22.058;2022-09-13T03:05:59;10.70;99.90
28247;DHT22;34504;53.178;22.058;2022-09-13T03:08:28;10.60;99.90
28247;DHT22;34504;53.178;22.058;2022-09-13T03:25:20;10.50;99.90
28247;DHT22;34504;53.178;22.058;2022-09-13T03:30:33;10.50;99.90
28247;DHT22;34504;53.178;22.058;2022-09-13T03:33:25;10.50;99.90
28247;DHT22;34504;53.178;22.058;2022-09-13T03:36:18;10.50;99.90
28247;DHT22;34504;53.178;22.058;2022-09-13T03:38:59;10.40;99.90
28247;DHT22;34504;53.178;22.058;2022-09-13T03:41:31;10.50;99.90
28247;DHT22;34504;53.178;22.058;2022-09-13T03:44:05;10.40;99.90
28247;DHT22;34504;53.178;22.058;2022-09-13T03:46:38;10.40;99.90
28247;DHT22;34504;53.178;22.058;2022-09-13T03:49:14;10.40;99.90
28247;DHT22;34504;53.178;22.058;2022-09-13T03:51:47;10.30;99.90
28247;DHT22;34504;53.178;22.058;2022-09-13T03:54:37;10.30;99.90
28247;DHT22;34504;53.178;22.058;2022-09-13T03:57:16;10.30;99.90
28247;DHT22;34504;53.178;22.058;2022-09-13T04:02:19;10.20;99.90
28247;DHT22;34504;53.178;22.058;2022-09-13T04:04:48;10.20;99.90
28247;DHT22;34504;53.178;22.058;2022-09-13T04:07:21;10.10;99.90
28247;DHT22;34504;53.178;22.058;2022-09-13T04:09:49;10.10;99.90
28247;DHT22;34504;53.178;22.058;2022-09-13T04:12:17;10.10;99.90
28247;DHT22;34504;53.178;22.058;2022-09-13T04:14:45;10.10;99.90
28247;DHT22;34504;53.178;22.058;2022-09-13T04:17:14;10.10;99.90
28247;DHT22;34504;53.178;22.058;2022-09-13T04:19:42;10.10;99.90
28247;DHT22;34504;53.178;22.058;2022-09-13T04:22:12;10.10;99.90
28247;DHT22;34504;53.178;22.058;2022-09-13T04:24:41;10.00;99.90
28247;DHT22;34504;53.178;22.058;2022-09-13T04:27:11;10.00;99.90
28247;DHT22;34504;53.178;22.058;2022-09-13T04:29:39;10.00;99.90
28247;DHT22;34504;53.178;22.058;2022-09-13T04:32:07;10.00;99.90
28247;DHT22;34504;53.178;22.058;2022-09-13T04:34:36;10.00;99.90
28247;DHT22;34504;53.178;22.058;2022-09-13T04:37:04;10.00;99.90
28247;DHT22;34504;53.178;22.058;2022-09-13T04:39:32;10.00;99.90
28247;DHT22;34504;53.178;22.058;2022-09-13T04:42:00;10.00;99.90
28247;DHT22;34504;53.178;22.058;2022-09-13T04:44:28;10.00;99.90
28247;DHT22;34504;53.178;22.058;2022-09-13T04:46:57;10.00;99.90
28247;DHT22;34504;53.178;22.058;2022-09-13T04:49:24;10.00;99.90
28247;DHT22;34504;53.178;22.058;2022-09-13T04:51:52;10.00;99.90
28247;DHT22;34504;53.178;22.058;2022-09-13T04:54:20;10.00;99.90
28247;DHT22;34504;53.178;22.058;2022-09-13T04:56:48;10.00;99.90
28247;DHT22;34504;53.178;22.058;2022-09-13T04:59:16;10.00;99.90
28247;DHT22;34504;53.178;22.058;2022-09-13T05:01:44;10.00;99.90
28247;DHT22;34504;53.178;22.058;2022-09-13T05:04:12;10.10;99.90
28247;DHT22;34504;53.178;22.058;2022-09-13T05:06:40;10.00;99.90
28247;DHT22;34504;53.178;22.058;2022-09-13T05:09:12;10.10;99.90
28247;DHT22;34504;53.178;22.058;2022-09-13T05:11:40;10.10;99.90
28247;DHT22;34504;53.178;22.058;2022-09-13T05:14:09;10.10;99.90
28247;DHT22;34504;53.178;22.058;2022-09-13T05:16:38;10.20;99.90
28247;DHT22;34504;53.178;22.058;2022-09-13T05:19:06;10.20;99.90
28247;DHT22;34504;53.178;22.058;2022-09-13T05:21:33;10.20;99.90
28247;DHT22;34504;53.178;22.058;2022-09-13T05:24:02;10.20;99.90
28247;DHT22;34504;53.178;22.058;2022-09-13T05:26:30;10.20;99.90
28247;DHT22;34504;53.178;22.058;2022-09-13T05:28:59;10.20;99.90
28247;DHT22;34504;53.178;22.058;2022-09-13T05:31:34;10.20;99.90
28247;DHT22;34504;53.178;22.058;2022-09-13T05:34:05;10.30;99.90
28247;DHT22;34504;53.178;22.058;2022-09-13T05:36:34;10.30;99.90
28247;DHT22;34504;53.178;22.058;2022-09-13T05:39:02;10.30;99.90
28247;DHT22;34504;53.178;22.058;2022-09-13T05:41:51;10.40;99.90
28247;DHT22;34504;53.178;22.058;2022-09-13T05:44:18;10.40;99.90
28247;DHT22;34504;53.178;22.058;2022-09-13T05:46:47;10.40;99.90
28247;DHT22;34504;53.178;22.058;2022-09-13T05:49:15;10.50;99.90
28247;DHT22;34504;53.178;22.058;2022-09-13T05:51:43;10.50;99.90
28247;DHT22;34504;53.178;22.058;2022-09-13T05:54:11;10.60;99.90
28247;DHT22;34504;53.178;22.058;2022-09-13T05:56:40;10.60;99.90
28247;DHT22;34504;53.178;22.058;2022-09-13T05:59:11;10.70;99.90
28247;DHT22;34504;53.178;22.058;2022-09-13T06:01:40;10.70;99.90
28247;DHT22;34504;53.178;22.058;2022-09-13T06:04:08;10.80;99.90
28247;DHT22;34504;53.178;22.058;2022-09-13T06:06:36;10.80;99.90
28247;DHT22;34504;53.178;22.058;2022-09-13T06:09:03;10.80;99.90
28247;DHT22;34504;53.178;22.058;2022-09-13T06:11:33;10.90;99.90
28247;DHT22;34504;53.178;22.058;2022-09-13T06:14:01;10.90;99.90
28247;DHT22;34504;53.178;22.058;2022-09-13T06:16:29;11.00;99.90
28247;DHT22;34504;53.178;22.058;2022-09-13T06:18:58;11.00;99.90
28247;DHT22;34504;53.178;22.058;2022-09-13T06:21:25;11.00;99.90
28247;DHT22;34504;53.178;22.058;2022-09-13T06:23:55;11.10;99.90
28247;DHT22;34504;53.178;22.058;2022-09-13T06:26:26;11.20;99.90
28247;DHT22;34504;53.178;22.058;2022-09-13T06:28:56;11.20;99.90
28247;DHT22;34504;53.178;22.058;2022-09-13T06:31:26;11.30;99.90
28247;DHT22;34504;53.178;22.058;2022-09-13T06:34:00;11.40;99.90
28247;DHT22;34504;53.178;22.058;2022-09-13T06:36:31;11.50;99.90
28247;DHT22;34504;53.178;22.058;2022-09-13T06:38:59;11.60;99.80
28247;DHT22;34504;53.178;22.058;2022-09-13T06:41:28;11.50;99.50
28247;DHT22;34504;53.178;22.058;2022-09-13T06:43:58;11.60;99.70
28247;DHT22;34504;53.178;22.058;2022-09-13T06:46:29;11.70;99.70
28247;DHT22;34504;53.178;22.058;2022-09-13T06:49:03;11.70;99.60
28247;DHT22;34504;53.178;22.058;2022-09-13T06:51:32;11.70;99.60
28247;DHT22;34504;53.178;22.058;2022-09-13T06:54:01;11.80;99.70
28247;DHT22;34504;53.178;22.058;2022-09-13T06:56:34;11.90;99.60
28247;DHT22;34504;53.178;22.058;2022-09-13T06:59:06;11.90;99.40
28247;DHT22;34504;53.178;22.058;2022-09-13T07:01:39;11.90;99.50
28247;DHT22;34504;53.178;22.058;2022-09-13T07:04:13;11.90;99.60
28247;DHT22;34504;53.178;22.058;2022-09-13T07:06:44;11.90;99.60
28247;DHT22;34504;53.178;22.058;2022-09-13T07:09:19;12.00;99.50
28247;DHT22;34504;53.178;22.058;2022-09-13T07:11:49;12.10;99.60
28247;DHT22;34504;53.178;22.058;2022-09-13T07:14:22;12.10;99.50
28247;DHT22;34504;53.178;22.058;2022-09-13T07:16:50;12.10;99.50
28247;DHT22;34504;53.178;22.058;2022-09-13T07:19:21;12.20;99.50
28247;DHT22;34504;53.178;22.058;2022-09-13T07:21:49;12.20;99.50
28247;DHT22;34504;53.178;22.058;2022-09-13T07:24:18;12.30;99.50
28247;DHT22;34504;53.178;22.058;2022-09-13T07:26:47;12.30;99.20
28247;DHT22;34504;53.178;22.058;2022-09-13T07:29:17;12.30;99.50
28247;DHT22;34504;53.178;22.058;2022-09-13T07:31:47;12.40;99.50
28247;DHT22;34504;53.178;22.058;2022-09-13T07:34:20;12.40;99.60
28247;DHT22;34504;53.178;22.058;2022-09-13T07:36:49;12.50;99.70
28247;DHT22;34504;53.178;22.058;2022-09-13T07:39:17;12.60;99.70
28247;DHT22;34504;53.178;22.058;2022-09-13T07:41:50;12.60;99.60
28247;DHT22;34504;53.178;22.058;2022-09-13T07:44:19;12.70;99.50
28247;DHT22;34504;53.178;22.058;2022-09-13T07:46:46;12.80;99.50
28247;DHT22;34504;53.178;22.058;2022-09-13T07:49:17;12.80;99.60
28247;DHT22;34504;53.178;22.058;2022-09-13T07:51:45;12.90;99.60
28247;DHT22;34504;53.178;22.058;2022-09-13T07:54:15;13.00;99.70
28247;DHT22;34504;53.178;22.058;2022-09-13T07:56:45;13.00;99.60
28247;DHT22;34504;53.178;22.058;2022-09-13T07:59:15;13.10;99.30
28247;DHT22;34504;53.178;22.058;2022-09-13T08:01:47;13.20;99.30
28247;DHT22;34504;53.178;22.058;2022-09-13T08:04:18;13.20;99.10
28247;DHT22;34504;53.178;22.058;2022-09-13T08:06:47;13.30;99.10
28247;DHT22;34504;53.178;22.058;2022-09-13T08:09:16;13.40;99.10
28247;DHT22;34504;53.178;22.058;2022-09-13T08:11:47;13.50;98.90
28247;DHT22;34504;53.178;22.058;2022-09-13T08:14:17;13.60;98.70
28247;DHT22;34504;53.178;22.058;2022-09-13T08:16:46;13.60;98.60
28247;DHT22;34504;53.178;22.058;2022-09-13T08:19:16;13.70;98.40
28247;DHT22;34504;53.178;22.058;2022-09-13T08:21:45;13.80;97.90
28247;DHT22;34504;53.178;22.058;2022-09-13T08:24:18;13.90;97.80
28247;DHT22;34504;53.178;22.058;2022-09-13T08:26:48;14.00;97.60
28247;DHT22;34504;53.178;22.058;2022-09-13T08:29:16;14.10;97.50
28247;DHT22;34504;53.178;22.058;2022-09-13T08:31:45;14.10;97.40
28247;DHT22;34504;53.178;22.058;2022-09-13T08:34:14;14.20;97.20
28247;DHT22;34504;53.178;22.058;2022-09-13T08:36:43;14.30;97.00
28247;DHT22;34504;53.178;22.058;2022-09-13T08:39:11;14.40;96.90
28247;DHT22;34504;53.178;22.058;2022-09-13T08:44:33;14.60;96.30
28247;DHT22;34504;53.178;22.058;2022-09-13T08:56:11;15.10;95.00
28247;DHT22;34504;53.178;22.058;2022-09-13T09:01:36;15.20;95.30
28247;DHT22;34504;53.178;22.058;2022-09-13T09:04:44;15.20;94.30
28247;DHT22;34504;53.178;22.058;2022-09-13T09:07:22;15.20;93.60
28247;DHT22;34504;53.178;22.058;2022-09-13T09:12:46;15.40;93.80
28247;DHT22;34504;53.178;22.058;2022-09-13T09:15:21;15.40;93.70
28247;DHT22;34504;53.178;22.058;2022-09-13T09:20:46;15.40;92.90
28247;DHT22;34504;53.178;22.058;2022-09-13T09:23:18;15.40;93.30
28247;DHT22;34504;53.178;22.058;2022-09-13T09:25:50;15.40;93.30
28247;DHT22;34504;53.178;22.058;2022-09-13T09:28:21;15.40;93.20
28247;DHT22;34504;53.178;22.058;2022-09-13T09:31:03;15.50;93.10
28247;DHT22;34504;53.178;22.058;2022-09-13T09:36:52;15.50;92.60
28247;DHT22;34504;53.178;22.058;2022-09-13T09:39:22;15.50;92.80
28247;DHT22;34504;53.178;22.058;2022-09-13T09:41:54;15.60;92.90
28247;DHT22;34504;53.178;22.058;2022-09-13T09:44:26;15.50;92.50
28247;DHT22;34504;53.178;22.058;2022-09-13T09:47:18;15.60;92.50
28247;DHT22;34504;53.178;22.058;2022-09-13T09:49:53;15.60;92.10
28247;DHT22;34504;53.178;22.058;2022-09-13T09:55:31;15.80;92.30
28247;DHT22;34504;53.178;22.058;2022-09-13T09:58:03;15.90;92.70
28247;DHT22;34504;53.178;22.058;2022-09-13T10:00:49;16.00;92.50
28247;DHT22;34504;53.178;22.058;2022-09-13T10:03:20;16.00;92.40
28247;DHT22;34504;53.178;22.058;2022-09-13T10:06:02;16.10;91.80
28247;DHT22;34504;53.178;22.058;2022-09-13T10:08:32;16.20;91.70
28247;DHT22;34504;53.178;22.058;2022-09-13T10:11:01;16.30;91.90
28247;DHT22;34504;53.178;22.058;2022-09-13T10:13:30;16.40;91.00
28247;DHT22;34504;53.178;22.058;2022-09-13T10:16:06;16.40;90.40
28247;DHT22;34504;53.178;22.058;2022-09-13T10:18:48;16.40;90.10
28247;DHT22;34504;53.178;22.058;2022-09-13T10:21:20;16.50;89.70
28247;DHT22;34504;53.178;22.058;2022-09-13T10:23:49;16.50;89.50
28247;DHT22;34504;53.178;22.058;2022-09-13T10:26:23;16.60;89.20
28247;DHT22;34504;53.178;22.058;2022-09-13T10:29:04;16.70;87.60
28247;DHT22;34504;53.178;22.058;2022-09-13T10:31:36;16.70;88.00
28247;DHT22;34504;53.178;22.058;2022-09-13T10:36:46;16.90;87.50
28247;DHT22;34504;53.178;22.058;2022-09-13T10:39:21;17.00;87.80
28247;DHT22;34504;53.178;22.058;2022-09-13T10:42:05;17.00;87.00
28247;DHT22;34504;53.178;22.058;2022-09-13T10:44:54;17.00;86.00
28247;DHT22;34504;53.178;22.058;2022-09-13T10:49:53;17.20;84.80
28247;DHT22;34504;53.178;22.058;2022-09-13T10:52:35;17.20;84.40
28247;DHT22;34504;53.178;22.058;2022-09-13T10:57:46;17.40;82.10
28247;DHT22;34504;53.178;22.058;2022-09-13T11:00:38;17.40;83.20
28247;DHT22;34504;53.178;22.058;2022-09-13T11:06:28;17.50;81.80
28247;DHT22;34504;53.178;22.058;2022-09-13T11:13:09;17.60;80.90
28247;DHT22;34504;53.178;22.058;2022-09-13T11:15:44;17.60;81.10
28247;DHT22;34504;53.178;22.058;2022-09-13T11:23:51;17.70;80.80
28247;DHT22;34504;53.178;22.058;2022-09-13T11:38:04;17.80;79.80
28247;DHT22;34504;53.178;22.058;2022-09-13T11:49:33;17.90;79.30
28247;DHT22;34504;53.178;22.058;2022-09-13T11:55:20;18.00;79.10
28247;DHT22;34504;53.178;22.058;2022-09-13T11:57:51;18.00;79.90
28247;DHT22;34504;53.178;22.058;2022-09-13T12:00:26;18.00;80.50
28247;DHT22;34504;53.178;22.058;2022-09-13T12:03:04;18.10;79.20
28247;DHT22;34504;53.178;22.058;2022-09-13T12:05:38;18.10;79.70
28247;DHT22;34504;53.178;22.058;2022-09-13T12:11:01;18.20;79.40
28247;DHT22;34504;53.178;22.058;2022-09-13T12:16:24;18.20;78.50
28247;DHT22;34504;53.178;22.058;2022-09-13T12:18:57;18.30;79.50
28247;DHT22;34504;53.178;22.058;2022-09-13T12:21:30;18.30;80.10
28247;DHT22;34504;53.178;22.058;2022-09-13T12:26:56;18.40;79.70
28247;DHT22;34504;53.178;22.058;2022-09-13T12:29:35;18.30;78.70
28247;DHT22;34504;53.178;22.058;2022-09-13T12:32:06;18.40;79.80
28247;DHT22;34504;53.178;22.058;2022-09-13T12:35:04;18.40;80.20
28247;DHT22;34504;53.178;22.058;2022-09-13T12:42:54;18.40;80.20
28247;DHT22;34504;53.178;22.058;2022-09-13T12:51:19;18.40;79.30
28247;DHT22;34504;53.178;22.058;2022-09-13T13:19:29;18.10;79.40
28247;DHT22;34504;53.178;22.058;2022-09-13T13:25:32;18.00;81.20
28247;DHT22;34504;53.178;22.058;2022-09-13T13:30:53;17.90;82.30
28247;DHT22;34504;53.178;22.058;2022-09-13T13:33:27;17.90;82.40
28247;DHT22;34504;53.178;22.058;2022-09-13T13:36:27;17.80;82.70
28247;DHT22;34504;53.178;22.058;2022-09-13T13:39:00;17.80;83.00
28247;DHT22;34504;53.178;22.058;2022-09-13T13:49:51;17.70;83.70
28247;DHT22;34504;53.178;22.058;2022-09-13T13:52:39;17.70;84.00
28247;DHT22;34504;53.178;22.058;2022-09-13T13:55:41;17.60;84.20
28247;DHT22;34504;53.178;22.058;2022-09-13T13:58:30;17.60;84.10
28247;DHT22;34504;53.178;22.058;2022-09-13T14:01:01;17.60;84.90
28247;DHT22;34504;53.178;22.058;2022-09-13T14:03:49;17.60;84.60
28247;DHT22;34504;53.178;22.058;2022-09-13T14:09:50;17.50;83.90
28247;DHT22;34504;53.178;22.058;2022-09-13T14:23:44;17.40;85.90
28247;DHT22;34504;53.178;22.058;2022-09-13T14:26:15;17.40;86.20
28247;DHT22;34504;53.178;22.058;2022-09-13T14:28:44;17.40;86.20
28247;DHT22;34504;53.178;22.058;2022-09-13T14:31:17;17.40;85.90
28247;DHT22;34504;53.178;22.058;2022-09-13T14:33:48;17.40;86.00
28247;DHT22;34504;53.178;22.058;2022-09-13T14:36:23;17.50;86.00
28247;DHT22;34504;53.178;22.058;2022-09-13T14:38:59;17.50;86.00
28247;DHT22;34504;53.178;22.058;2022-09-13T14:41:35;17.50;85.80
28247;DHT22;34504;53.178;22.058;2022-09-13T14:44:16;17.50;85.40
28247;DHT22;34504;53.178;22.058;2022-09-13T14:47:40;17.50;85.10
28247;DHT22;34504;53.178;22.058;2022-09-13T14:50:28;17.50;85.20
28247;DHT22;34504;53.178;22.058;2022-09-13T14:53:11;17.50;85.50
28247;DHT22;34504;53.178;22.058;2022-09-13T14:55:57;17.50;85.50
28247;DHT22;34504;53.178;22.058;2022-09-13T14:58:41;17.40;85.50
28247;DHT22;34504;53.178;22.058;2022-09-13T15:01:30;17.40;85.40
28247;DHT22;34504;53.178;22.058;2022-09-13T15:04:03;17.40;85.40
28247;DHT22;34504;53.178;22.058;2022-09-13T15:06:46;17.40;85.40
28247;DHT22;34504;53.178;22.058;2022-09-13T15:09:34;17.40;85.70
28247;DHT22;34504;53.178;22.058;2022-09-13T15:12:27;17.40;85.80
28247;DHT22;34504;53.178;22.058;2022-09-13T15:18:05;17.40;86.40
28247;DHT22;34504;53.178;22.058;2022-09-13T15:21:02;17.40;86.20
28247;DHT22;34504;53.178;22.058;2022-09-13T15:23:37;17.40;86.20
28247;DHT22;34504;53.178;22.058;2022-09-13T15:26:34;17.40;86.40
28247;DHT22;34504;53.178;22.058;2022-09-13T15:29:20;17.40;86.90
28247;DHT22;34504;53.178;22.058;2022-09-13T15:31:57;17.40;86.90
28247;DHT22;34504;53.178;22.058;2022-09-13T15:34:27;17.40;87.00
28247;DHT22;34504;53.178;22.058;2022-09-13T15:39:44;17.40;87.20
28247;DHT22;34504;53.178;22.058;2022-09-13T15:42:21;17.40;87.60
28247;DHT22;34504;53.178;22.058;2022-09-13T15:44:51;17.30;87.70
28247;DHT22;34504;53.178;22.058;2022-09-13T15:47:20;17.30;87.90
28247;DHT22;34504;53.178;22.058;2022-09-13T15:49:51;17.20;88.00
28247;DHT22;34504;53.178;22.058;2022-09-13T15:52:27;17.20;88.00
28247;DHT22;34504;53.178;22.058;2022-09-13T15:55:00;17.20;88.00
28247;DHT22;34504;53.178;22.058;2022-09-13T15:57:29;17.10;88.30
28247;DHT22;34504;53.178;22.058;2022-09-13T15:59:58;17.10;88.60
28247;DHT22;34504;53.178;22.058;2022-09-13T16:02:36;17.00;88.40
28247;DHT22;34504;53.178;22.058;2022-09-13T16:05:11;17.00;88.50
28247;DHT22;34504;53.178;22.058;2022-09-13T16:07:41;17.00;88.70
28247;DHT22;34504;53.178;22.058;2022-09-13T16:10:15;16.90;89.00
28247;DHT22;34504;53.178;22.058;2022-09-13T16:12:49;16.90;89.10
28247;DHT22;34504;53.178;22.058;2022-09-13T16:15:19;16.90;89.20
28247;DHT22;34504;53.178;22.058;2022-09-13T16:17:52;16.90;89.40
28247;DHT22;34504;53.178;22.058;2022-09-13T16:20:20;16.80;89.80
28247;DHT22;34504;53.178;22.058;2022-09-13T16:22:58;16.80;89.80
28247;DHT22;34504;53.178;22.058;2022-09-13T16:25:31;16.80;90.00
28247;DHT22;34504;53.178;22.058;2022-09-13T16:28:03;16.70;90.20
28247;DHT22;34504;53.178;22.058;2022-09-13T16:30:37;16.70;90.20
28247;DHT22;34504;53.178;22.058;2022-09-13T16:33:09;16.60;90.30
28247;DHT22;34504;53.178;22.058;2022-09-13T16:35:37;16.60;90.40
28247;DHT22;34504;53.178;22.058;2022-09-13T16:38:09;16.50;90.60
28247;DHT22;34504;53.178;22.058;2022-09-13T16:40:43;16.50;90.60
28247;DHT22;34504;53.178;22.058;2022-09-13T16:43:13;16.40;90.70
28247;DHT22;34504;53.178;22.058;2022-09-13T16:45:44;16.40;90.80
28247;DHT22;34504;53.178;22.058;2022-09-13T16:48:18;16.40;90.80
28247;DHT22;34504;53.178;22.058;2022-09-13T16:50:50;16.40;90.90
28247;DHT22;34504;53.178;22.058;2022-09-13T16:53:22;16.30;90.90
28247;DHT22;34504;53.178;22.058;2022-09-13T16:55:51;16.30;91.00
28247;DHT22;34504;53.178;22.058;2022-09-13T16:58:20;16.30;91.10
28247;DHT22;34504;53.178;22.058;2022-09-13T17:00:54;16.20;91.20
28247;DHT22;34504;53.178;22.058;2022-09-13T17:03:31;16.20;91.30
28247;DHT22;34504;53.178;22.058;2022-09-13T17:06:04;16.20;91.40
28247;DHT22;34504;53.178;22.058;2022-09-13T17:08:39;16.20;91.50
28247;DHT22;34504;53.178;22.058;2022-09-13T17:11:11;16.10;91.60
28247;DHT22;34504;53.178;22.058;2022-09-13T17:13:41;16.10;91.60
28247;DHT22;34504;53.178;22.058;2022-09-13T17:16:32;16.10;91.70
28247;DHT22;34504;53.178;22.058;2022-09-13T17:19:20;16.00;91.80
28247;DHT22;34504;53.178;22.058;2022-09-13T17:21:52;16.00;91.90
28247;DHT22;34504;53.178;22.058;2022-09-13T17:24:27;16.00;92.00
28247;DHT22;34504;53.178;22.058;2022-09-13T17:26:58;16.00;92.20
28247;DHT22;34504;53.178;22.058;2022-09-13T17:29:27;16.00;92.50
28247;DHT22;34504;53.178;22.058;2022-09-13T17:31:58;15.90;92.60
28247;DHT22;34504;53.178;22.058;2022-09-13T17:34:31;15.90;92.80
28247;DHT22;34504;53.178;22.058;2022-09-13T17:37:01;15.90;92.90
28247;DHT22;34504;53.178;22.058;2022-09-13T17:39:33;15.90;93.50
28247;DHT22;34504;53.178;22.058;2022-09-13T17:42:02;15.80;93.30
28247;DHT22;34504;53.178;22.058;2022-09-13T17:44:44;15.80;93.50
28247;DHT22;34504;53.178;22.058;2022-09-13T17:47:16;15.70;93.60
28247;DHT22;34504;53.178;22.058;2022-09-13T17:49:45;15.70;93.70
28247;DHT22;34504;53.178;22.058;2022-09-13T17:52:15;15.70;93.70
28247;DHT22;34504;53.178;22.058;2022-09-13T17:54:44;15.70;93.80
28247;DHT22;34504;53.178;22.058;2022-09-13T17:57:15;15.70;93.80
28247;DHT22;34504;53.178;22.058;2022-09-13T17:59:45;15.60;93.80
28247;DHT22;34504;53.178;22.058;2022-09-13T18:02:24;15.60;93.90
28247;DHT22;34504;53.178;22.058;2022-09-13T18:04:59;15.60;93.90
28247;DHT22;34504;53.178;22.058;2022-09-13T18:07:33;15.50;93.80
28247;DHT22;34504;53.178;22.058;2022-09-13T18:10:03;15.60;93.90
28247;DHT22;34504;53.178;22.058;2022-09-13T18:12:52;15.50;94.00
28247;DHT22;34504;53.178;22.058;2022-09-13T18:15:28;15.50;94.10
28247;DHT22;34504;53.178;22.058;2022-09-13T18:18:03;15.50;94.10
28247;DHT22;34504;53.178;22.058;2022-09-13T18:20:38;15.50;94.10
28247;DHT22;34504;53.178;22.058;2022-09-13T18:23:12;15.50;94.20
28247;DHT22;34504;53.178;22.058;2022-09-13T18:25:41;15.50;94.20
28247;DHT22;34504;53.178;22.058;2022-09-13T18:28:14;15.50;94.20
28247;DHT22;34504;53.178;22.058;2022-09-13T18:31:03;15.40;94.30
28247;DHT22;34504;53.178;22.058;2022-09-13T18:33:37;15.50;94.30
28247;DHT22;34504;53.178;22.058;2022-09-13T18:36:10;15.40;94.30
28247;DHT22;34504;53.178;22.058;2022-09-13T18:38:44;15.40;94.30
28247;DHT22;34504;53.178;22.058;2022-09-13T18:41:30;15.40;94.40
28247;DHT22;34504;53.178;22.058;2022-09-13T18:44:02;15.40;94.50
28247;DHT22;34504;53.178;22.058;2022-09-13T18:46:34;15.40;94.40
28247;DHT22;34504;53.178;22.058;2022-09-13T18:49:05;15.40;94.30
28247;DHT22;34504;53.178;22.058;2022-09-13T18:51:37;15.40;94.40
28247;DHT22;34504;53.178;22.058;2022-09-13T18:54:10;15.40;94.50
28247;DHT22;34504;53.178;22.058;2022-09-13T18:56:43;15.40;94.40
28247;DHT22;34504;53.178;22.058;2022-09-13T18:59:13;15.40;94.40
28247;DHT22;34504;53.178;22.058;2022-09-13T19:01:52;15.40;94.40
28247;DHT22;34504;53.178;22.058;2022-09-13T19:04:22;15.40;94.50
28247;DHT22;34504;53.178;22.058;2022-09-13T19:06:58;15.40;94.50
28247;DHT22;34504;53.178;22.058;2022-09-13T19:09:34;15.40;94.50
28247;DHT22;34504;53.178;22.058;2022-09-13T19:12:05;15.40;94.40
28247;DHT22;34504;53.178;22.058;2022-09-13T19:14:35;15.40;94.50
28247;DHT22;34504;53.178;22.058;2022-09-13T19:17:06;15.40;94.50
28247;DHT22;34504;53.178;22.058;2022-09-13T19:19:46;15.40;94.50
28247;DHT22;34504;53.178;22.058;2022-09-13T19:22:16;15.40;94.60
28247;DHT22;34504;53.178;22.058;2022-09-13T19:24:46;15.40;94.60
28247;DHT22;34504;53.178;22.058;2022-09-13T19:27:17;15.40;94.60
28247;DHT22;34504;53.178;22.058;2022-09-13T19:29:50;15.40;94.60
28247;DHT22;34504;53.178;22.058;2022-09-13T19:32:20;15.40;94.60